TAF LETL
LETL 081700Z 0818/0918 30015KT 9999 FEW050 TX11/0912Z TN02/0906Z TEMPO 0819/0824 30020G30KT TEMPO 0900/0904 33015G25KT TEMPO 0911/0915 30020G30KT=
METAR LETL
LETL 082230Z AUTO 34010KT 9999 FEW039 01/M04 Q1015=
LETL 082200Z AUTO 33017KT CAVOK 02/M04 Q1014=
LETL 082130Z AUTO 31017G28KT CAVOK 02/M05 Q1013=
LETL 082100Z AUTO 32016KT 290V350 CAVOK 03/M05 Q1013=
LETL 082030Z AUTO 31022G34KT 280V340 CAVOK 03/M05 Q1013=
WC LETL
WS LETL
WV LETL